createdAt,value
2022-10-15T00:00:17.865Z,0.40
2022-10-15T00:02:44.356Z,0.30
2022-10-15T00:05:10.908Z,0.50
2022-10-15T00:07:37.488Z,0.22
2022-10-15T00:10:04.298Z,0.73
2022-10-15T00:12:30.857Z,0.52
2022-10-15T00:14:57.402Z,2.90
2022-10-15T00:17:24.345Z,0.20
2022-10-15T00:19:51.146Z,0.60
2022-10-15T00:22:17.871Z,0.30
2022-10-15T00:24:44.421Z,2.10
2022-10-15T00:27:10.931Z,0.22
2022-10-15T00:29:37.448Z,0.40
2022-10-15T00:32:04.027Z,0.73
2022-10-15T00:34:30.805Z,0.50
2022-10-15T00:36:57.326Z,0.50
2022-10-15T00:39:24.071Z,1.10
2022-10-15T00:41:50.626Z,0.63
2022-10-15T00:44:26.801Z,2.33
2022-10-15T00:47:17.921Z,1.73
2022-10-15T00:49:55.453Z,1.00
2022-10-15T00:52:37.289Z,1.95
2022-10-15T00:55:12.520Z,1.38
2022-10-15T00:57:40.355Z,1.52
2022-10-15T01:00:11.255Z,2.90
2022-10-15T01:02:38.071Z,1.92
2022-10-15T01:05:05.478Z,4.35
2022-10-15T01:07:31.985Z,3.47
2022-10-15T01:09:58.705Z,2.45
2022-10-15T01:12:25.445Z,3.25
2022-10-15T01:15:05.306Z,2.40
2022-10-15T01:17:48.133Z,4.13
2022-10-15T01:20:31.791Z,3.03
2022-10-15T01:23:07.434Z,4.47
2022-10-15T01:25:55.835Z,3.08
2022-10-15T01:28:53.020Z,5.45
2022-10-15T01:31:42.078Z,4.35
2022-10-15T01:34:25.172Z,4.93
2022-10-15T01:37:03.885Z,4.30
2022-10-15T01:39:59.478Z,4.70
2022-10-15T01:42:36.119Z,5.35
2022-10-15T01:45:07.650Z,3.90
2022-10-15T01:47:37.996Z,4.22
2022-10-15T01:50:06.784Z,4.93
2022-10-15T01:52:37.433Z,9.23
2022-10-15T01:55:07.093Z,9.48
2022-10-15T01:57:35.041Z,5.70
2022-10-15T02:00:04.632Z,5.85
2022-10-15T02:02:31.139Z,6.38
2022-10-15T02:04:57.787Z,8.35
2022-10-15T02:07:57.017Z,7.97
2022-10-15T02:10:52.896Z,7.35
2022-10-15T02:13:40.836Z,8.15
2022-10-15T02:16:41.666Z,6.50
2022-10-15T02:19:32.222Z,7.50
2022-10-15T02:22:09.055Z,9.38
2022-10-15T02:24:41.796Z,8.70
2022-10-15T02:27:11.017Z,8.18
2022-10-15T02:29:40.090Z,4.72
2022-10-15T02:32:08.420Z,8.05
2022-10-15T02:34:36.468Z,6.28
2022-10-15T02:37:05.016Z,3.88
2022-10-15T02:39:32.026Z,5.47
2022-10-15T02:41:58.789Z,5.60
2022-10-15T02:44:25.415Z,6.07
2022-10-15T02:46:51.973Z,7.38
2022-10-15T02:49:18.502Z,6.95
2022-10-15T02:51:45.028Z,7.43
2022-10-15T02:54:11.902Z,5.55
2022-10-15T02:56:39.523Z,6.38
2022-10-15T02:59:06.832Z,9.02
2022-10-15T03:01:34.281Z,6.68
2022-10-15T03:04:01.771Z,7.53
2022-10-15T03:06:28.398Z,7.57
2022-10-15T03:08:54.919Z,9.85
2022-10-15T03:11:21.462Z,7.80
2022-10-15T03:13:47.982Z,5.05
2022-10-15T03:16:14.595Z,5.60
2022-10-15T03:18:41.329Z,6.40
2022-10-15T03:21:08.164Z,8.15
2022-10-15T03:23:34.865Z,8.88
2022-10-15T03:26:01.908Z,8.05
2022-10-15T03:28:28.479Z,11.52
2022-10-15T03:30:55.262Z,12.05
2022-10-15T03:33:24.381Z,16.73
2022-10-15T03:35:52.826Z,11.50
2022-10-15T03:38:19.788Z,11.25
2022-10-15T03:40:46.701Z,9.38
2022-10-15T03:43:13.332Z,7.63
2022-10-15T03:45:40.036Z,6.90
2022-10-15T03:48:06.822Z,7.32
2022-10-15T03:50:33.395Z,7.18
2022-10-15T03:53:02.314Z,7.10
2022-10-15T03:55:28.851Z,8.35
2022-10-15T03:57:55.357Z,10.20
2022-10-15T04:00:21.963Z,6.50
2022-10-15T04:02:48.500Z,8.13
2022-10-15T04:05:15.168Z,8.68
2022-10-15T04:07:42.822Z,9.88
2022-10-15T04:10:09.705Z,10.63
2022-10-15T04:12:36.265Z,7.75
2022-10-15T04:15:03.175Z,7.10
2022-10-15T04:17:29.691Z,11.38
2022-10-15T04:19:56.202Z,8.07
2022-10-15T04:22:23.072Z,13.38
2022-10-15T04:24:50.011Z,8.90
2022-10-15T04:27:16.581Z,10.52
2022-10-15T04:29:43.135Z,10.07
2022-10-15T04:32:16.346Z,11.80
2022-10-15T04:34:43.177Z,9.07
2022-10-15T04:37:09.665Z,10.93
2022-10-15T04:39:36.178Z,11.68
2022-10-15T04:42:02.766Z,9.63
2022-10-15T04:44:29.366Z,9.55
2022-10-15T04:46:55.863Z,11.50
2022-10-15T04:49:22.455Z,7.85
2022-10-15T04:51:49.133Z,7.18
2022-10-15T04:54:15.747Z,6.00
2022-10-15T04:56:42.359Z,2.30
2022-10-15T04:59:09.739Z,2.83
2022-10-15T05:01:36.367Z,5.03
2022-10-15T05:04:03.044Z,4.68
2022-10-15T05:06:29.559Z,2.90
2022-10-15T05:08:56.061Z,4.35
2022-10-15T05:11:26.273Z,4.13
2022-10-15T05:13:56.191Z,4.00
2022-10-15T05:16:25.594Z,4.18
2022-10-15T05:18:56.184Z,2.95
2022-10-15T05:21:22.744Z,2.60
2022-10-15T05:23:50.323Z,3.15
2022-10-15T05:26:25.077Z,3.50
2022-10-15T05:28:52.481Z,4.22
2022-10-15T05:31:21.590Z,5.38
2022-10-15T05:33:49.831Z,3.30
2022-10-15T05:36:20.561Z,4.53
2022-10-15T05:38:53.105Z,2.60
2022-10-15T05:41:20.979Z,3.58
2022-10-15T05:43:49.071Z,6.60
2022-10-15T05:46:15.726Z,5.25
2022-10-15T05:48:42.639Z,5.70
2022-10-15T05:51:12.881Z,3.72
2022-10-15T05:53:40.529Z,2.83
2022-10-15T05:56:08.478Z,6.43
2022-10-15T05:58:37.474Z,3.35
2022-10-15T06:01:08.161Z,5.57
2022-10-15T06:03:35.746Z,5.00
2022-10-15T06:06:02.386Z,3.15
2022-10-15T06:08:30.523Z,9.25
2022-10-15T06:11:06.761Z,2.97
2022-10-15T06:13:37.917Z,4.45
2022-10-15T06:16:04.916Z,4.35
2022-10-15T06:18:31.902Z,4.13
2022-10-15T06:20:58.427Z,7.93
2022-10-15T06:23:24.962Z,8.65
2022-10-15T06:25:51.591Z,7.70
2022-10-15T06:28:18.370Z,7.50
2022-10-15T06:30:45.097Z,5.32
2022-10-15T06:35:44.072Z,4.80
2022-10-15T06:38:10.931Z,6.13
2022-10-15T06:40:38.879Z,6.88
2022-10-15T06:43:08.143Z,7.05
2022-10-15T06:45:37.184Z,9.55
2022-10-15T06:48:05.115Z,7.20
2022-10-15T06:50:40.840Z,6.65
2022-10-15T06:53:08.312Z,8.70
2022-10-15T06:55:35.471Z,12.88
2022-10-15T06:58:02.060Z,9.98
2022-10-15T07:00:28.836Z,11.13
2022-10-15T07:02:55.458Z,13.82
2022-10-15T07:05:22.185Z,13.13
2022-10-15T07:07:52.645Z,15.82
2022-10-15T07:12:50.782Z,11.82
2022-10-15T07:15:17.884Z,10.70
2022-10-15T07:17:52.298Z,12.73
2022-10-15T07:20:22.025Z,10.55
2022-10-15T07:22:51.052Z,8.93
2022-10-15T07:25:17.857Z,11.85
2022-10-15T07:27:44.691Z,12.50
2022-10-15T07:30:11.692Z,10.25
2022-10-15T07:32:38.332Z,13.35
2022-10-15T07:35:05.317Z,7.32
2022-10-15T07:37:32.897Z,7.43
2022-10-15T07:39:59.495Z,13.70
2022-10-15T07:42:26.389Z,7.25
2022-10-15T07:44:53.059Z,5.40
2022-10-15T07:47:19.923Z,7.10
2022-10-15T07:49:46.484Z,4.72
2022-10-15T07:52:13.151Z,8.32
2022-10-15T07:54:39.776Z,6.03
2022-10-15T07:57:09.251Z,4.18
2022-10-15T07:59:36.007Z,4.00
2022-10-15T08:02:02.781Z,3.80
2022-10-15T08:04:29.459Z,2.80
2022-10-15T08:06:56.058Z,3.13
2022-10-15T08:09:22.798Z,3.30
2022-10-15T08:11:49.351Z,4.55
2022-10-15T08:14:15.877Z,3.22
2022-10-15T08:16:42.430Z,4.18
2022-10-15T08:19:08.972Z,2.85
2022-10-15T08:21:35.493Z,4.43
2022-10-15T08:24:02.101Z,3.55
2022-10-15T08:26:28.714Z,2.58
2022-10-15T08:28:55.335Z,2.65
2022-10-15T08:31:21.943Z,7.88
2022-10-15T08:33:48.559Z,3.95
2022-10-15T08:36:15.147Z,6.75
2022-10-15T08:38:41.742Z,4.75
2022-10-15T08:41:26.684Z,5.65
2022-10-15T08:43:53.519Z,3.20
2022-10-15T08:46:25.416Z,3.35
2022-10-15T08:48:56.237Z,3.00
2022-10-15T08:51:28.501Z,3.97
2022-10-15T08:54:02.371Z,5.60
2022-10-15T08:56:39.293Z,3.20
2022-10-15T08:59:36.889Z,1.88
2022-10-15T09:02:17.519Z,2.80
2022-10-15T09:04:58.964Z,2.28
2022-10-15T09:07:54.354Z,1.92
2022-10-15T09:10:30.375Z,1.35
2022-10-15T09:13:16.452Z,6.10
2022-10-15T09:15:58.134Z,4.60
2022-10-15T09:18:28.793Z,3.70
2022-10-15T09:20:57.498Z,1.92
2022-10-15T09:23:27.468Z,2.33
2022-10-15T09:26:06.851Z,3.60
2022-10-15T09:28:43.570Z,3.70
2022-10-15T09:31:13.554Z,2.08
2022-10-15T09:33:45.317Z,1.92
2022-10-15T09:36:33.510Z,1.95
2022-10-15T09:39:21.665Z,2.67
2022-10-15T09:42:09.835Z,2.50
2022-10-15T09:44:41.956Z,1.77
2022-10-15T09:49:42.877Z,1.65
2022-10-15T09:52:21.972Z,2.83
2022-10-15T09:55:19.034Z,1.00
2022-10-15T09:57:51.646Z,1.17
2022-10-15T10:00:18.326Z,0.75
2022-10-15T10:02:44.918Z,2.35
2022-10-15T10:05:28.453Z,3.97
2022-10-15T10:08:24.275Z,2.92
2022-10-15T10:10:55.939Z,1.55
2022-10-15T10:13:32.869Z,2.80
2022-10-15T10:16:06.371Z,1.75
2022-10-15T10:18:33.201Z,0.95
2022-10-15T10:21:02.355Z,2.65
2022-10-15T10:23:31.986Z,0.98
2022-10-15T10:25:59.849Z,0.20
2022-10-15T10:28:32.845Z,1.35
2022-10-15T10:31:03.941Z,1.90
2022-10-15T10:33:52.288Z,1.38
2022-10-15T10:36:28.506Z,0.22
2022-10-15T10:39:28.962Z,0.60
2022-10-15T10:42:15.996Z,0.30
2022-10-15T10:44:46.932Z,1.58
2022-10-15T10:47:15.362Z,0.90
2022-10-15T10:49:46.740Z,3.60
2022-10-15T10:52:37.780Z,0.35
2022-10-15T10:55:18.043Z,0.50
2022-10-15T10:57:59.509Z,0.50
2022-10-15T11:00:32.503Z,1.33
2022-10-15T11:02:59.475Z,3.05
2022-10-15T11:05:29.263Z,0.60
2022-10-15T11:08:11.067Z,0.47
2022-10-15T11:11:04.676Z,1.13
2022-10-15T11:13:43.942Z,0.98
2022-10-15T11:16:21.269Z,0.55
2022-10-15T11:19:13.728Z,1.48
2022-10-15T11:21:58.689Z,0.20
2022-10-15T11:24:48.471Z,0.35
2022-10-15T11:27:52.895Z,0.65
2022-10-15T11:30:55.218Z,0.40
2022-10-15T11:33:24.447Z,4.80
2022-10-15T11:36:23.782Z,0.65
2022-10-15T11:39:37.446Z,2.05
2022-10-15T11:42:32.487Z,1.85
2022-10-15T11:45:28.835Z,1.88
2022-10-15T11:48:22.503Z,1.30
2022-10-15T11:51:00.694Z,1.35
2022-10-15T11:53:53.839Z,0.47
2022-10-15T11:56:28.604Z,1.45
2022-10-15T11:59:02.923Z,1.15
2022-10-15T12:01:50.016Z,2.20
2022-10-15T12:04:32.578Z,0.98
2022-10-15T12:07:02.484Z,1.98
2022-10-15T12:09:35.168Z,3.20
2022-10-15T12:12:20.455Z,2.97
2022-10-15T12:15:14.040Z,1.13
2022-10-15T12:17:54.387Z,1.55
2022-10-15T12:20:23.328Z,1.02
2022-10-15T12:22:52.830Z,2.42
2022-10-15T12:25:34.834Z,0.85
2022-10-15T12:28:03.977Z,1.55
2022-10-15T12:30:37.182Z,1.40
2022-10-15T12:33:23.085Z,4.80
2022-10-15T12:35:59.010Z,1.20
2022-10-15T12:38:33.296Z,0.77
2022-10-15T12:41:10.531Z,2.45
2022-10-15T12:43:41.957Z,2.08
2022-10-15T12:46:11.107Z,1.88
2022-10-15T12:48:46.232Z,0.88
2022-10-15T12:51:31.555Z,1.80
2022-10-15T12:54:00.351Z,0.82
2022-10-15T12:56:39.463Z,1.60
2022-10-15T12:59:50.137Z,2.38
2022-10-15T13:02:49.655Z,0.75
2022-10-15T13:05:35.908Z,1.23
2022-10-15T13:08:14.854Z,0.40
2022-10-15T13:10:57.098Z,0.75
2022-10-15T13:15:57.091Z,1.35
2022-10-15T13:20:54.658Z,1.73
2022-10-15T13:23:31.403Z,1.30
2022-10-15T13:26:20.446Z,1.75
2022-10-15T13:28:49.270Z,0.73
2022-10-15T13:31:27.520Z,4.63
2022-10-15T13:34:16.328Z,0.30
2022-10-15T13:36:45.082Z,0.70
2022-10-15T13:45:01.632Z,2.55
2022-10-15T13:47:32.723Z,0.60
2022-10-15T13:50:24.400Z,2.67
2022-10-15T13:53:05.788Z,1.38
2022-10-15T13:55:36.417Z,1.10
2022-10-15T13:58:24.979Z,3.85
2022-10-15T14:01:00.957Z,0.68
2022-10-15T14:03:30.693Z,3.22
2022-10-15T14:06:07.910Z,2.13
2022-10-15T14:08:36.357Z,2.38
2022-10-15T14:11:03.450Z,1.98
2022-10-15T14:13:29.997Z,1.35
2022-10-15T14:16:42.441Z,3.20
2022-10-15T14:19:12.009Z,3.85
2022-10-15T14:21:44.676Z,0.90
2022-10-15T14:24:16.496Z,4.50
2022-10-15T14:26:44.359Z,1.42
2022-10-15T14:29:25.009Z,2.08
2022-10-15T14:31:51.614Z,2.92
2022-10-15T14:34:38.868Z,2.30
2022-10-15T14:37:36.510Z,0.73
2022-10-15T14:40:23.270Z,1.85
2022-10-15T14:43:05.069Z,0.88
2022-10-15T14:45:53.325Z,0.30
2022-10-15T14:48:24.715Z,0.40
2022-10-15T14:50:51.324Z,0.85
2022-10-15T14:53:21.825Z,0.82
2022-10-15T14:56:03.094Z,3.05
2022-10-15T14:58:30.749Z,1.73
2022-10-15T15:00:59.584Z,1.35
2022-10-15T15:03:31.909Z,1.58
2022-10-15T15:05:58.539Z,0.57
2022-10-15T15:08:26.068Z,2.88
2022-10-15T15:10:56.306Z,1.17
2022-10-15T15:13:27.969Z,0.40
2022-10-15T15:15:54.953Z,1.30
2022-10-15T15:18:21.559Z,0.20
2022-10-15T15:20:50.646Z,1.98
2022-10-15T15:23:23.865Z,1.35
2022-10-15T15:25:52.286Z,2.83
2022-10-15T15:28:21.551Z,0.30
2022-10-15T15:31:05.539Z,1.75
2022-10-15T15:33:33.314Z,1.58
2022-10-15T15:36:09.793Z,2.40
2022-10-15T15:41:12.471Z,1.60
2022-10-15T15:43:39.359Z,2.03
2022-10-15T15:46:06.179Z,1.30
2022-10-15T15:48:32.827Z,2.63
2022-10-15T15:51:02.658Z,2.25
2022-10-15T15:53:29.593Z,3.35
2022-10-15T15:55:56.147Z,3.30
2022-10-15T15:58:22.662Z,2.13
2022-10-15T16:00:49.231Z,3.38
2022-10-15T16:03:15.779Z,0.60
2022-10-15T16:05:42.689Z,2.25
2022-10-15T16:08:10.443Z,3.95
2022-10-15T16:10:37.043Z,2.45
2022-10-15T16:13:03.785Z,2.35
2022-10-15T16:15:30.339Z,1.60
2022-10-15T16:17:56.878Z,2.67
2022-10-15T16:20:23.410Z,3.42
2022-10-15T16:22:53.719Z,1.35
2022-10-15T16:25:22.530Z,2.47
2022-10-15T16:27:51.786Z,2.10
2022-10-15T16:30:19.323Z,1.85
2022-10-15T16:32:46.167Z,0.93
2022-10-15T16:35:12.745Z,4.88
2022-10-15T16:37:39.302Z,2.55
2022-10-15T16:40:06.562Z,2.67
2022-10-15T16:42:33.073Z,1.15
2022-10-15T16:44:59.578Z,2.88
2022-10-15T16:47:26.294Z,4.13
2022-10-15T16:49:55.506Z,4.32
2022-10-15T16:52:22.220Z,3.28
2022-10-15T16:54:48.941Z,1.83
2022-10-15T16:57:15.445Z,2.17
2022-10-15T16:59:41.986Z,1.13
2022-10-15T17:02:09.908Z,2.75
2022-10-15T17:04:36.493Z,2.67
2022-10-15T17:07:03.027Z,5.80
2022-10-15T17:09:29.670Z,6.32
2022-10-15T17:11:56.167Z,5.57
2022-10-15T17:14:22.668Z,4.93
2022-10-15T17:16:51.587Z,1.55
2022-10-15T17:19:23.542Z,2.10
2022-10-15T17:21:50.830Z,3.35
2022-10-15T17:24:19.330Z,7.95
2022-10-15T17:26:46.964Z,6.53
2022-10-15T17:29:20.699Z,2.47
2022-10-15T17:31:48.379Z,2.70
2022-10-15T17:34:14.969Z,2.25
2022-10-15T17:36:47.739Z,4.28
2022-10-15T17:39:17.883Z,5.22
2022-10-15T17:41:44.479Z,2.55
2022-10-15T17:44:11.872Z,5.80
2022-10-15T17:46:39.067Z,4.00
2022-10-15T17:49:06.277Z,2.47
2022-10-15T17:51:33.251Z,2.00
2022-10-15T17:54:00.403Z,5.30
2022-10-15T17:56:32.367Z,3.40
2022-10-15T17:59:00.688Z,3.38
2022-10-15T18:01:33.717Z,1.02
2022-10-15T18:04:12.928Z,0.63
2022-10-15T18:06:44.298Z,1.48
2022-10-15T18:09:10.841Z,3.40
2022-10-15T18:11:37.595Z,4.32
2022-10-15T18:14:04.111Z,1.40
2022-10-15T18:16:30.812Z,2.55
2022-10-15T18:18:57.389Z,2.40
2022-10-15T18:21:27.460Z,1.20
2022-10-15T18:23:56.520Z,2.50
2022-10-15T18:26:23.947Z,4.40
2022-10-15T18:28:52.204Z,2.60
2022-10-15T18:31:19.746Z,4.30
2022-10-15T18:33:49.191Z,3.22
2022-10-15T18:36:18.355Z,2.58
2022-10-15T18:38:45.183Z,3.80
2022-10-15T18:41:15.673Z,1.42
2022-10-15T18:43:42.375Z,1.88
2022-10-15T18:46:09.424Z,1.35
2022-10-15T18:48:38.851Z,2.08
2022-10-15T18:51:08.782Z,7.45
2022-10-15T18:53:39.527Z,4.88
2022-10-15T18:56:07.076Z,1.98
2022-10-15T18:58:33.871Z,2.28
2022-10-15T19:01:10.566Z,3.83
2022-10-15T19:03:37.266Z,1.83
2022-10-15T19:06:03.888Z,8.18
2022-10-15T19:08:31.137Z,2.47
2022-10-15T19:11:08.602Z,3.17
2022-10-15T19:13:36.289Z,3.08
2022-10-15T19:16:04.504Z,3.67
2022-10-15T19:18:31.813Z,2.80
2022-10-15T19:20:58.405Z,7.25
2022-10-15T19:23:25.063Z,9.43
2022-10-15T19:25:52.075Z,15.85
2022-10-15T19:28:18.700Z,3.08
2022-10-15T19:31:03.254Z,3.72
2022-10-15T19:33:31.522Z,4.70
2022-10-15T19:35:58.484Z,5.80
2022-10-15T19:38:26.342Z,3.20
2022-10-15T19:40:53.682Z,7.90
2022-10-15T19:43:22.051Z,8.00
2022-10-15T19:45:49.075Z,6.22
2022-10-15T19:48:18.572Z,4.55
2022-10-15T19:50:46.731Z,2.42
2022-10-15T19:53:16.449Z,11.52
2022-10-15T19:55:44.147Z,4.22
2022-10-15T19:58:10.693Z,3.10
2022-10-15T20:00:37.253Z,2.80
2022-10-15T20:03:03.865Z,6.90
2022-10-15T20:05:30.429Z,2.55
2022-10-15T20:07:56.948Z,4.80
2022-10-15T20:10:26.022Z,2.25
2022-10-15T20:12:53.342Z,10.13
2022-10-15T20:15:20.056Z,4.30
2022-10-15T20:17:47.231Z,2.30
2022-10-15T20:20:13.723Z,5.55
2022-10-15T20:22:40.261Z,3.75
2022-10-15T20:25:07.268Z,7.18
2022-10-15T20:27:33.847Z,8.63
2022-10-15T20:30:00.360Z,6.32
2022-10-15T20:32:35.286Z,7.13
2022-10-15T20:35:04.217Z,7.75
2022-10-15T20:37:31.101Z,13.15
2022-10-15T20:42:29.251Z,26.15
2022-10-15T20:44:55.859Z,27.27
2022-10-15T20:47:24.053Z,15.95
2022-10-15T20:49:54.154Z,10.75
2022-10-15T20:52:22.583Z,8.07
2022-10-15T20:54:50.307Z,5.97
2022-10-15T20:57:16.842Z,6.50
2022-10-15T20:59:43.374Z,11.52
2022-10-15T21:02:09.957Z,4.60
2022-10-15T21:04:36.460Z,9.15
2022-10-15T21:07:02.981Z,8.02
2022-10-15T21:09:29.479Z,11.45
2022-10-15T21:11:56.022Z,9.43
2022-10-15T21:14:22.577Z,9.13
2022-10-15T21:16:49.152Z,9.30
2022-10-15T21:19:15.661Z,8.15
2022-10-15T21:21:42.159Z,14.88
2022-10-15T21:24:08.704Z,9.63
2022-10-15T21:26:35.185Z,14.90
2022-10-15T21:29:01.836Z,7.68
2022-10-15T21:31:28.535Z,7.93
2022-10-15T21:33:55.719Z,10.68
2022-10-15T21:36:27.199Z,11.93
2022-10-15T21:38:56.395Z,10.70
2022-10-15T21:41:24.476Z,7.43
2022-10-15T21:43:51.865Z,7.65
2022-10-15T21:46:19.026Z,3.10
2022-10-15T21:48:45.905Z,6.72
2022-10-15T21:51:17.861Z,5.80
2022-10-15T21:53:44.615Z,7.53
2022-10-15T21:56:11.275Z,6.07
2022-10-15T21:58:39.282Z,5.95
2022-10-15T22:01:23.449Z,12.65
2022-10-15T22:03:51.552Z,14.05
2022-10-15T22:06:19.339Z,9.88
2022-10-15T22:08:46.633Z,14.80
2022-10-15T22:11:15.779Z,6.65
2022-10-15T22:13:44.191Z,6.15
2022-10-15T22:16:11.640Z,5.45
2022-10-15T22:18:38.668Z,3.95
2022-10-15T22:21:15.943Z,7.25
2022-10-15T22:23:50.004Z,2.45
2022-10-15T22:26:18.603Z,3.58
2022-10-15T22:28:46.043Z,4.75
2022-10-15T22:31:15.123Z,3.45
2022-10-15T22:33:42.597Z,4.15
2022-10-15T22:36:18.023Z,2.45
2022-10-15T22:38:46.532Z,3.22
2022-10-15T22:41:13.918Z,4.75
2022-10-15T22:43:40.756Z,3.67
2022-10-15T22:46:07.906Z,2.63
2022-10-15T22:48:35.847Z,5.65
2022-10-15T22:51:03.855Z,4.90
2022-10-15T22:53:31.440Z,5.40
2022-10-15T22:56:02.307Z,3.50
2022-10-15T22:58:31.350Z,1.55
2022-10-15T23:01:11.159Z,5.15
2022-10-15T23:03:39.187Z,0.70
2022-10-15T23:06:06.438Z,2.33
2022-10-15T23:08:34.394Z,1.52
2022-10-15T23:11:12.761Z,1.38
2022-10-15T23:13:40.540Z,4.32
2022-10-15T23:16:07.136Z,2.38
2022-10-15T23:18:33.704Z,3.67
2022-10-15T23:21:11.375Z,4.35
2022-10-15T23:23:37.857Z,2.47
2022-10-15T23:26:04.362Z,3.58
2022-10-15T23:28:30.966Z,2.65
2022-10-15T23:30:57.535Z,3.08
2022-10-15T23:33:24.552Z,5.18
2022-10-15T23:36:04.513Z,4.50
2022-10-15T23:38:31.259Z,5.93
2022-10-15T23:41:07.318Z,5.80
2022-10-15T23:43:34.071Z,2.88
2022-10-15T23:46:00.853Z,4.22
2022-10-15T23:48:28.289Z,2.65
2022-10-15T23:50:59.258Z,6.93
2022-10-15T23:53:29.142Z,4.47
2022-10-15T23:55:55.703Z,2.38
2022-10-15T23:58:22.218Z,1.55
